Murphy, Mississippi
Current Conditions -  °F | °C
As of 1:53 AM on Thursday 29 Jan 2015 (Local Time) from KGLH Reporting Station
Clear Clear  
Wind Chill: 52°   Ceiling: Unl
Heat Index: 52°   Visibility: 10mi
Dew Point: 41°   Wind: 13mph
Humidity: 66%   Direction: 200°SSW
Pressure: 30.11"   Gusts: NA
Location:  33.1785°N, 90.8086°W
Report Text: KGLH 290753Z AUTO 20011KT 10SM CLR 11/05 A3011 RMK AO2 SLP203 T01110050
Loading
Personal Weather Stations






























Interactive Weather Map New forecast layout! Learn more

10-Day Weather Forecast

Advertisements
Track Severe Weather on mobile